Airfield :







YOU CAN JOIN US ON...

 
LOGIN :

Register | Disclaimer

   EN    FR    IT 

 









Legend :    VFR   Marginal VFR   IFR   Intensive IFR   Very Intensive IFR
Visi :
Ceiling :
>= 8 km
>= 3000ft
5 to 8 km
1000 to 3000 ft
1500m to 5 km
500 to 1000 ft
800 to 1500m
200 to 500 ft
< 800m
< 200 ft
Symbols :   Thunderstorms  Fog  Heavy snow  Heavy precipitations  Wind > 20 kt







- Airport Elevation : 792 ft
- IATA code : YSC


CYSC - Sherbrooke

CURRENT METAR :
  • 231900Z AUTO 29010KT 9SM FEW045 BKN060 BKN250 19/11 A2998 RMK SLP157 DENSITY ALT 1300FT

EXPIRED METARs :
  • 231800Z AUTO 30011G18KT 9SM FEW039 SCT046 BKN240 20/11 A2998 RMK SLP155 DENSITY ALT 1400FT
  • 231700Z AUTO 29010G19KT 9SM FEW041 SCT250 20/11 A2997 RMK SLP152 DENSITY ALT 1400FT

TAF TAF CYSC
Valid from the 23 at 18:00 until the 24 at 03:00 UTC


231738Z 2318/2403 29010G20KT P6SM SCT040
TEMPO 2318/2403 BKN040
BECMG 2321/2323 31006KT RMK FCST BASED ON AUTO OBS. NXT FCST BY 240000Z
No reported NOTAMs for that airfield.



MET'MAP, your aeronautical weather chart ! - Copyright ORBIFLY December 2007 - Disclaimer

ORBIFLY MET'MAP TEAM :

Programming & Development : Alexandra Zaïnal
Concept & Development : Baudouin d'Aumeries
Co-Development & Prog : Marc-Olivier Méhu
Technical & hardware support : Manuel Goepfert

Contact : metmap@orbifly.com




SOURCES & CREDITS :

   NOAA